Flight OLY10052

  • Submitted By: Stavros Sarikas
  • Departure Airport: Eleftherios Venizelos International Airport (LGAV)
  • Arrival Airport: LISZT FERENC INTL (LHBP)
  • Aircraft: A320-200 (SX-OAH)
  • Flight Time: 02.13
  • Date Submitted: 02/12/2017
  • Route: ABLON UB1 SKP UV652 PEREN UN133 EVIVI N133 SODGO T139 DEGET ABONY
  • Status: Accepted
Flight Details
Gross Revenue:
(138 load / € 151.75 per unit
€ 20, 941.50
Fuel Cost:
(4917 fuel used @ 0.19 / unit)
€ 934.23

Additional Log Information:

View Log

Aircraft Used in flight is Airbus A320 British Airways G-EUUU
16:46 Boarding
16:46 Navigation Lights ON at 320 Feet
16:46 Beacon Lights ON at 320 Feet
16:46 Brakes are On
16:48 Engine 1 Started
16:49 Engine 2 Started
16:51 Flaps 3 Selected at 320ft and 0kts
16:55 Brakes are Released
16:55 Pushing back
17:03 Taxi Lights ON at 320 Feet
17:04 Landing Lights ON at 320 AGL
17:04 Strobe Lights ON at 320 Feet
17:08 Brakes are On
17:10 Brakes are Released
17:11 You Took off @ 143 Knots and Flaps at Position 3 With a heading of 217 Degrees
Departure Weather LGAV 021450Z 15013KT 9999 FEW020 SCT070 19/12 Q1015 NOSIG
Departure Coordinates 37.9374201897162/ 23.9566691941508
Takeoff Weight=63442KG Fuel Weight=8599KG
17:11 Landing Gear Up @ 145 Knots and 390 Feet
17:11 Taxi Lights OFF at 410 Feet
17:12 Flaps 2 Selected at 2080ft and 147kts
17:13 Flaps 0 Selected at 2770ft and 188kts
17:16 Above FL100 you need to switch of the landing lights
17:16 Landing Lights OFF at 10340 AGL
17:16 You exceeded maximum bank angle
17:32 TOC Reached
18:51 Flaps 1 Selected at 6160ft and 217kts
18:53 Flaps 3 Selected at 2910ft and 186kts
18:53 Landing Gear Down @ 160 Knots and 2460 Feet
18:54 Flaps 4 Selected at 2100ft and 152kts
18:54 Flaps 5 Selected at 1750ft and 144kts
18:56 You Landed @ 131 Knots with 0 Vertical Speed With a heading of 312 and with 1.3872 G Force
Arrival Weather: LHBP 021630Z 33008KT CAVOK M01/M04 Q1021 NOSIG
Arrival Coordinates 47.4257002604842/ 19.2893947596011
Landing Weight=59038KG Fuel Weight=4193KG
18:56 Taxiing to gate
18:56 Paused
18:57 Taxi Lights ON at 510 Feet
18:57 Strobe Lights OFF at 510 Feet
18:57 Flaps 0 Selected at 510ft and 31kts
18:59 Unpaused
18:59 Brakes are On
Pirep logged with OA Virtual Tracking 1.0.2.6

Route Map